createdAt,value
2018-11-06T00:02:00.127Z,8.25
2018-11-06T00:04:33.907Z,8.14
2018-11-06T00:07:02.452Z,8.08
2018-11-06T00:09:30.982Z,8.15
2018-11-06T00:11:59.539Z,8.11
2018-11-06T00:14:28.028Z,8.11
2018-11-06T00:16:56.540Z,8.09
2018-11-06T00:19:25.325Z,8.12
2018-11-06T00:21:53.856Z,7.98
2018-11-06T00:24:22.439Z,7.95
2018-11-06T00:26:50.994Z,7.99
2018-11-06T00:29:19.510Z,7.91
2018-11-06T00:31:48.042Z,7.94
2018-11-06T00:34:16.633Z,7.92
2018-11-06T00:36:45.064Z,7.81
2018-11-06T00:39:13.598Z,7.78
2018-11-06T00:41:42.135Z,7.80
2018-11-06T00:44:10.634Z,7.68
2018-11-06T00:46:39.985Z,7.68
2018-11-06T00:49:08.590Z,7.65
2018-11-06T00:51:37.487Z,7.68
2018-11-06T00:54:06.668Z,7.71
2018-11-06T00:56:35.163Z,7.74
2018-11-06T00:59:03.712Z,7.70
2018-11-06T01:01:32.234Z,7.67
2018-11-06T01:04:06.130Z,7.67
2018-11-06T01:06:34.640Z,7.66
2018-11-06T01:09:03.287Z,7.66
2018-11-06T01:12:56.193Z,7.67
2018-11-06T01:15:24.726Z,7.51
2018-11-06T01:17:53.237Z,7.47
2018-11-06T01:20:21.743Z,7.40
2018-11-06T01:22:50.264Z,7.34
2018-11-06T01:25:18.729Z,7.45
2018-11-06T01:27:47.280Z,7.37
2018-11-06T01:30:18.222Z,7.47
2018-11-06T01:32:47.101Z,7.45
2018-11-06T01:35:16.115Z,7.44
2018-11-06T01:37:45.293Z,7.47
2018-11-06T01:40:14.896Z,7.34
2018-11-06T01:42:44.026Z,7.38
2018-11-06T01:45:13.788Z,7.36
2018-11-06T01:47:42.473Z,7.35
2018-11-06T01:50:15.570Z,7.36
2018-11-06T01:52:45.081Z,7.28
2018-11-06T01:55:13.663Z,7.27
2018-11-06T01:57:42.247Z,7.27
2018-11-06T02:00:13.661Z,7.27
2018-11-06T02:02:42.395Z,7.26
2018-11-06T02:05:12.642Z,7.23
2018-11-06T02:07:41.909Z,7.23
2018-11-06T02:10:11.972Z,7.15
2018-11-06T02:12:40.855Z,7.20
2018-11-06T02:15:09.891Z,7.24
2018-11-06T02:17:39.414Z,7.20
2018-11-06T02:20:08.661Z,7.05
2018-11-06T02:22:37.146Z,7.11
2018-11-06T02:25:06.433Z,7.12
2018-11-06T02:27:34.973Z,7.06
2018-11-06T02:30:03.552Z,7.05
2018-11-06T02:32:32.180Z,7.05
2018-11-06T02:35:00.582Z,7.07
2018-11-06T02:37:29.127Z,7.04
2018-11-06T02:39:57.678Z,6.99
2018-11-06T02:42:26.167Z,7.07
2018-11-06T02:44:54.707Z,7.10
2018-11-06T02:47:23.197Z,7.08
2018-11-06T02:49:51.749Z,7.08
2018-11-06T02:52:20.282Z,6.97
2018-11-06T02:54:48.808Z,6.96
2018-11-06T02:57:17.310Z,6.93
2018-11-06T02:59:45.828Z,6.96
2018-11-06T03:02:14.353Z,6.92
2018-11-06T03:04:42.849Z,6.97
2018-11-06T03:07:11.347Z,7.00
2018-11-06T03:09:39.896Z,6.92
2018-11-06T03:12:08.414Z,6.85
2018-11-06T03:14:36.914Z,6.90
2018-11-06T03:17:05.832Z,6.83
2018-11-06T03:19:34.238Z,6.82
2018-11-06T03:22:02.753Z,6.80
2018-11-06T03:24:31.310Z,6.75
2018-11-06T03:26:59.880Z,6.77
2018-11-06T03:29:28.305Z,6.76
2018-11-06T03:31:56.836Z,6.77
2018-11-06T03:34:25.360Z,6.76
2018-11-06T03:36:53.896Z,6.73
2018-11-06T03:39:22.385Z,6.81
2018-11-06T03:41:50.947Z,6.81
2018-11-06T03:44:19.455Z,6.81
2018-11-06T03:46:47.958Z,6.78
2018-11-06T03:49:16.440Z,6.74
2018-11-06T03:51:44.957Z,6.68
2018-11-06T03:54:13.501Z,6.71
2018-11-06T03:56:42.005Z,6.72
2018-11-06T03:59:10.466Z,6.73
2018-11-06T04:01:39.001Z,6.68
2018-11-06T04:04:07.509Z,6.65
2018-11-06T04:06:36.054Z,6.71
2018-11-06T04:09:06.673Z,6.62
2018-11-06T04:11:35.214Z,6.63
2018-11-06T04:14:03.698Z,6.64
2018-11-06T04:16:32.228Z,6.64
2018-11-06T04:19:00.695Z,6.56
2018-11-06T04:21:35.002Z,6.60
2018-11-06T04:24:03.937Z,6.57
2018-11-06T04:26:32.413Z,6.49
2018-11-06T04:29:00.884Z,6.57
2018-11-06T04:31:29.387Z,6.61
2018-11-06T04:33:57.862Z,6.63
2018-11-06T04:36:26.369Z,6.52
2018-11-06T04:38:54.846Z,6.53
2018-11-06T04:41:23.397Z,6.49
2018-11-06T04:43:52.400Z,6.59
2018-11-06T04:46:21.080Z,6.49
2018-11-06T04:48:50.233Z,6.50
2018-11-06T04:51:19.006Z,6.49
2018-11-06T04:53:47.470Z,6.46
2018-11-06T04:56:16.006Z,6.47
2018-11-06T04:58:44.512Z,6.44
2018-11-06T05:01:13.025Z,6.45
2018-11-06T05:03:45.707Z,6.40
2018-11-06T05:06:14.321Z,6.45
2018-11-06T05:08:42.805Z,6.41
2018-11-06T05:11:11.301Z,6.41
2018-11-06T05:13:39.767Z,6.42
2018-11-06T05:17:37.394Z,6.39
2018-11-06T05:20:08.712Z,6.31
2018-11-06T05:22:37.273Z,6.23
2018-11-06T05:25:06.547Z,6.31
2018-11-06T05:27:35.092Z,6.30
2018-11-06T05:30:03.567Z,6.30
2018-11-06T05:32:32.089Z,6.35
2018-11-06T05:35:00.705Z,6.36
2018-11-06T05:37:29.082Z,6.33
2018-11-06T05:41:08.750Z,6.34
2018-11-06T05:43:38.196Z,6.22
2018-11-06T05:46:06.819Z,6.25
2018-11-06T05:48:35.329Z,6.31
2018-11-06T05:51:03.872Z,6.35
2018-11-06T05:53:32.369Z,6.33
2018-11-06T05:56:00.863Z,6.36
2018-11-06T05:58:29.370Z,6.41
2018-11-06T06:00:57.850Z,6.39
2018-11-06T06:03:26.367Z,6.42
2018-11-06T06:05:54.832Z,6.42
2018-11-06T06:08:23.336Z,6.36
2018-11-06T06:10:51.928Z,6.41
2018-11-06T06:13:20.421Z,6.51
2018-11-06T06:15:48.910Z,6.53
2018-11-06T06:18:17.408Z,6.48
2018-11-06T06:20:45.902Z,6.61
2018-11-06T06:23:14.427Z,6.61
2018-11-06T06:25:42.918Z,6.72
2018-11-06T06:28:11.463Z,6.79
2018-11-06T06:30:40.003Z,6.84
2018-11-06T06:33:08.569Z,6.95
2018-11-06T06:35:37.100Z,7.04
2018-11-06T06:38:06.114Z,7.17
2018-11-06T06:40:34.639Z,7.39
2018-11-06T06:43:03.190Z,7.41
2018-11-06T06:45:31.687Z,7.68
2018-11-06T06:48:00.250Z,7.82
2018-11-06T06:50:28.744Z,8.00
2018-11-06T06:52:57.267Z,8.21
2018-11-06T06:55:25.807Z,8.47
2018-11-06T06:58:03.311Z,8.63
2018-11-06T07:00:51.248Z,8.72
2018-11-06T07:03:21.193Z,9.04
2018-11-06T07:05:49.655Z,9.26
2018-11-06T07:08:18.771Z,9.41
2018-11-06T07:10:47.264Z,9.70
2018-11-06T07:13:15.835Z,9.87
2018-11-06T07:15:44.333Z,9.83
2018-11-06T07:18:12.890Z,10.17
2018-11-06T07:20:42.073Z,10.50
2018-11-06T07:23:10.711Z,10.81
2018-11-06T07:25:39.210Z,11.10
2018-11-06T07:28:08.095Z,11.35
2018-11-06T07:30:37.925Z,11.68
2018-11-06T07:33:06.439Z,12.01
2018-11-06T07:35:35.196Z,12.14
2018-11-06T07:38:03.673Z,12.40
2018-11-06T07:40:32.259Z,12.72
2018-11-06T07:43:02.700Z,13.25
2018-11-06T07:45:31.849Z,13.81
2018-11-06T07:48:00.353Z,14.17
2018-11-06T07:50:28.851Z,14.60
2018-11-06T07:52:57.312Z,15.06
2018-11-06T07:55:25.858Z,15.35
2018-11-06T07:57:54.425Z,15.79
2018-11-06T08:00:25.347Z,15.79
2018-11-06T08:02:53.858Z,16.16
2018-11-06T08:05:22.431Z,16.28
2018-11-06T08:07:51.624Z,16.57
2018-11-06T08:10:20.147Z,16.78
2018-11-06T08:12:50.089Z,17.09
2018-11-06T08:15:18.629Z,16.99
2018-11-06T08:17:47.317Z,17.18
2018-11-06T08:20:15.880Z,17.45
2018-11-06T08:22:44.403Z,17.91
2018-11-06T08:25:14.199Z,18.16
2018-11-06T08:27:43.594Z,18.48
2018-11-06T08:30:12.685Z,18.39
2018-11-06T08:32:41.693Z,18.63
2018-11-06T08:35:12.284Z,18.90
2018-11-06T08:37:41.192Z,19.20
2018-11-06T08:40:11.436Z,19.39
2018-11-06T08:42:40.585Z,19.77
2018-11-06T08:45:10.848Z,20.22
2018-11-06T08:47:40.170Z,20.43
2018-11-06T08:50:11.276Z,20.61
2018-11-06T08:52:42.626Z,20.77
2018-11-06T08:55:12.336Z,21.16
2018-11-06T08:57:41.601Z,21.06
2018-11-06T09:00:16.496Z,21.07
2018-11-06T09:02:46.407Z,21.18
2018-11-06T09:05:20.601Z,21.58
2018-11-06T09:07:51.330Z,21.82
2018-11-06T09:10:19.901Z,21.90
2018-11-06T09:12:48.402Z,21.62
2018-11-06T09:15:19.717Z,21.60
2018-11-06T09:17:48.245Z,22.13
2018-11-06T09:20:18.205Z,22.16
2018-11-06T09:22:46.739Z,22.62
2018-11-06T09:25:16.782Z,22.85
2018-11-06T09:27:45.841Z,22.98
2018-11-06T09:30:15.699Z,23.13
2018-11-06T09:32:44.255Z,23.40
2018-11-06T09:35:15.549Z,23.60
2018-11-06T09:37:44.610Z,23.51
2018-11-06T09:40:17.745Z,23.68
2018-11-06T09:42:46.985Z,24.00
2018-11-06T09:45:15.791Z,23.83
2018-11-06T09:47:45.794Z,23.56
2018-11-06T09:50:16.742Z,22.98
2018-11-06T09:52:45.926Z,23.46
2018-11-06T09:55:16.076Z,23.26
2018-11-06T09:57:44.896Z,23.78
2018-11-06T10:00:17.893Z,23.77
2018-11-06T10:02:46.439Z,23.14
2018-11-06T10:05:15.297Z,22.84
2018-11-06T10:07:44.238Z,22.76
2018-11-06T10:10:21.103Z,22.31
2018-11-06T10:12:49.639Z,22.54
2018-11-06T10:15:19.699Z,22.40
2018-11-06T10:17:50.405Z,22.30
2018-11-06T10:20:21.109Z,21.94
2018-11-06T10:22:49.622Z,22.01
2018-11-06T10:26:42.526Z,21.56
2018-11-06T10:29:11.020Z,22.44
2018-11-06T10:31:39.640Z,22.92
2018-11-06T10:34:08.179Z,22.92
2018-11-06T10:36:36.724Z,22.91
2018-11-06T10:39:08.107Z,22.19
2018-11-06T10:41:36.798Z,21.25
2018-11-06T10:44:05.689Z,20.96
2018-11-06T10:46:34.980Z,20.52
2018-11-06T10:49:03.661Z,20.72
2018-11-06T10:51:32.245Z,20.75
2018-11-06T10:54:00.804Z,20.83
2018-11-06T10:56:29.348Z,20.86
2018-11-06T10:58:57.944Z,21.07
2018-11-06T11:01:31.753Z,21.34
2018-11-06T11:04:05.671Z,21.45
2018-11-06T11:06:34.305Z,21.27
2018-11-06T11:09:02.876Z,21.30
2018-11-06T11:11:31.524Z,21.22
2018-11-06T11:14:00.143Z,21.44
2018-11-06T11:16:28.811Z,21.65
2018-11-06T11:18:57.367Z,21.26
2018-11-06T11:21:26.032Z,21.33
2018-11-06T11:23:54.530Z,21.34
2018-11-06T11:26:23.038Z,21.82
2018-11-06T11:28:51.576Z,22.07
2018-11-06T11:31:20.142Z,21.75
2018-11-06T11:33:48.713Z,21.98
2018-11-06T11:36:17.300Z,21.95
2018-11-06T11:38:45.795Z,21.78
2018-11-06T11:41:15.510Z,21.89
2018-11-06T11:43:45.681Z,21.71
2018-11-06T11:46:14.199Z,21.73
2018-11-06T11:48:42.911Z,21.74
2018-11-06T11:51:11.458Z,22.19
2018-11-06T11:53:39.977Z,21.94
2018-11-06T11:56:08.480Z,21.89
2018-11-06T11:58:39.607Z,22.12
2018-11-06T12:01:08.158Z,21.90
2018-11-06T12:03:36.690Z,21.56
2018-11-06T12:06:05.238Z,21.56
2018-11-06T12:08:33.746Z,21.53
2018-11-06T12:11:02.410Z,21.36
2018-11-06T12:13:30.911Z,21.23
2018-11-06T12:15:59.380Z,21.13
2018-11-06T12:18:27.970Z,21.25
2018-11-06T12:20:56.481Z,21.04
2018-11-06T12:23:24.998Z,21.00
2018-11-06T12:25:53.624Z,21.16
2018-11-06T12:28:22.059Z,21.35
2018-11-06T12:30:50.593Z,21.47
2018-11-06T12:33:19.089Z,21.33
2018-11-06T12:35:47.622Z,21.43
2018-11-06T12:38:16.168Z,21.48
2018-11-06T12:40:44.661Z,21.44
2018-11-06T12:43:13.259Z,21.22
2018-11-06T12:45:41.674Z,21.42
2018-11-06T12:48:10.209Z,21.38
2018-11-06T12:50:38.709Z,21.69
2018-11-06T12:53:07.217Z,21.41
2018-11-06T12:55:35.710Z,21.57
2018-11-06T12:58:04.247Z,21.47
2018-11-06T13:00:32.854Z,21.58
2018-11-06T13:03:02.403Z,21.71
2018-11-06T13:05:30.994Z,21.75
2018-11-06T13:07:59.497Z,21.59
2018-11-06T13:10:28.013Z,21.73
2018-11-06T13:12:56.854Z,21.75
2018-11-06T13:15:25.406Z,22.04
2018-11-06T13:17:53.851Z,22.24
2018-11-06T13:20:22.322Z,22.30
2018-11-06T13:22:50.851Z,22.21
2018-11-06T13:25:20.379Z,22.50
2018-11-06T13:27:48.876Z,22.29
2018-11-06T13:30:18.629Z,22.41
2018-11-06T13:32:47.869Z,22.29
2018-11-06T13:35:16.486Z,21.80
2018-11-06T13:37:46.435Z,21.90
2018-11-06T13:40:15.975Z,22.01
2018-11-06T13:42:44.718Z,22.20
2018-11-06T13:45:15.100Z,22.91
2018-11-06T13:47:43.578Z,23.27
2018-11-06T13:50:12.112Z,23.26
2018-11-06T13:52:40.616Z,22.99
2018-11-06T13:55:10.779Z,22.80
2018-11-06T13:57:41.726Z,23.05
2018-11-06T14:00:12.220Z,23.28
2018-11-06T14:02:40.702Z,23.69
2018-11-06T14:05:09.243Z,23.70
2018-11-06T14:07:37.724Z,23.91
2018-11-06T14:10:07.084Z,24.23
2018-11-06T14:12:35.922Z,24.24
2018-11-06T14:15:06.425Z,23.62
2018-11-06T14:17:39.915Z,23.34
2018-11-06T14:20:11.132Z,22.98
2018-11-06T14:22:39.700Z,22.55
2018-11-06T14:25:08.747Z,22.06
2018-11-06T14:27:37.603Z,21.42
2018-11-06T14:30:10.029Z,21.04
2018-11-06T14:32:38.631Z,20.67
2018-11-06T14:35:08.481Z,20.25
2018-11-06T14:37:36.934Z,19.96
2018-11-06T14:40:06.774Z,19.77
2018-11-06T14:42:35.408Z,19.39
2018-11-06T14:45:04.003Z,19.13
2018-11-06T14:47:32.562Z,18.80
2018-11-06T14:50:01.070Z,18.62
2018-11-06T14:52:29.559Z,18.44
2018-11-06T14:54:58.107Z,18.27
2018-11-06T14:57:26.586Z,18.14
2018-11-06T14:59:55.103Z,17.79
2018-11-06T15:02:23.625Z,17.71
2018-11-06T15:04:52.147Z,17.61
2018-11-06T15:07:20.622Z,17.37
2018-11-06T15:09:49.171Z,17.19
2018-11-06T15:12:17.668Z,17.03
2018-11-06T15:14:46.414Z,16.78
2018-11-06T15:17:14.919Z,16.59
2018-11-06T15:19:43.426Z,16.47
2018-11-06T15:22:11.949Z,16.19
2018-11-06T15:24:40.484Z,16.12
2018-11-06T15:27:08.989Z,16.04
2018-11-06T15:29:37.507Z,15.92
2018-11-06T15:32:06.058Z,15.83
2018-11-06T15:34:34.591Z,15.70
2018-11-06T15:37:03.098Z,15.65
2018-11-06T15:39:31.652Z,15.46
2018-11-06T15:42:00.306Z,15.36
2018-11-06T15:44:28.658Z,15.21
2018-11-06T15:46:57.154Z,15.20
2018-11-06T15:49:25.689Z,15.01
2018-11-06T15:51:54.184Z,14.99
2018-11-06T15:54:22.668Z,14.94
2018-11-06T15:56:51.215Z,14.86
2018-11-06T15:59:19.685Z,14.76
2018-11-06T16:01:48.233Z,14.66
2018-11-06T16:04:16.659Z,14.62
2018-11-06T16:06:45.164Z,14.51
2018-11-06T16:09:13.626Z,14.46
2018-11-06T16:11:42.132Z,14.34
2018-11-06T16:14:10.639Z,14.36
2018-11-06T16:16:39.131Z,14.24
2018-11-06T16:19:08.121Z,14.17
2018-11-06T16:21:36.631Z,14.07
2018-11-06T16:24:05.197Z,14.03
2018-11-06T16:26:33.670Z,14.01
2018-11-06T16:29:02.179Z,14.01
2018-11-06T16:31:30.779Z,14.02
2018-11-06T16:33:59.622Z,13.89
2018-11-06T16:36:28.227Z,13.89
2018-11-06T16:39:01.379Z,13.79
2018-11-06T16:41:49.882Z,13.67
2018-11-06T16:44:27.774Z,13.72
2018-11-06T16:47:08.447Z,13.58
2018-11-06T16:49:39.071Z,13.50
2018-11-06T16:52:13.806Z,13.56
2018-11-06T16:57:50.491Z,13.52
2018-11-06T17:00:24.665Z,13.39
2018-11-06T17:02:56.059Z,13.37
2018-11-06T17:05:25.373Z,13.41
2018-11-06T17:07:55.168Z,13.34
2018-11-06T17:10:26.309Z,13.22
2018-11-06T17:12:54.920Z,13.16
2018-11-06T17:15:24.101Z,13.13
2018-11-06T17:17:53.463Z,13.13
2018-11-06T17:20:22.450Z,13.16
2018-11-06T17:22:51.068Z,13.13
2018-11-06T17:25:20.839Z,13.12
2018-11-06T17:27:49.366Z,13.09
2018-11-06T17:30:18.699Z,13.06
2018-11-06T17:32:47.216Z,13.07
2018-11-06T17:35:17.132Z,12.97
2018-11-06T17:37:45.911Z,12.93
2018-11-06T17:40:15.739Z,12.93
2018-11-06T17:42:44.527Z,12.87
2018-11-06T17:45:14.709Z,12.88
2018-11-06T17:47:43.456Z,12.78
2018-11-06T17:50:13.236Z,12.75
2018-11-06T17:52:41.743Z,12.72
2018-11-06T17:55:11.999Z,12.67
2018-11-06T17:57:40.876Z,12.69
2018-11-06T18:00:13.212Z,12.58
2018-11-06T18:02:41.761Z,12.51
2018-11-06T18:05:11.578Z,12.41
2018-11-06T18:07:40.796Z,12.39
2018-11-06T18:10:10.397Z,12.34
2018-11-06T18:12:38.899Z,12.28
2018-11-06T18:15:07.493Z,12.31
2018-11-06T18:17:36.149Z,12.34
2018-11-06T18:20:04.902Z,12.30
2018-11-06T18:22:33.367Z,12.28
2018-11-06T18:25:01.920Z,12.21
2018-11-06T18:27:30.398Z,12.25
2018-11-06T18:29:58.880Z,12.21
2018-11-06T18:32:27.436Z,12.19
2018-11-06T18:34:56.324Z,12.17
2018-11-06T18:37:24.822Z,12.12
2018-11-06T18:39:53.298Z,12.08
2018-11-06T18:42:21.816Z,12.00
2018-11-06T18:44:50.310Z,11.97
2018-11-06T18:47:18.816Z,12.00
2018-11-06T18:49:47.369Z,11.95
2018-11-06T18:52:15.782Z,11.90
2018-11-06T18:54:44.289Z,11.92
2018-11-06T18:57:12.840Z,11.89
2018-11-06T18:59:41.373Z,11.89
2018-11-06T19:02:09.889Z,11.88
2018-11-06T19:04:38.389Z,11.89
2018-11-06T19:07:07.119Z,11.81
2018-11-06T19:09:35.644Z,11.81
2018-11-06T19:12:04.175Z,11.78
2018-11-06T19:14:32.693Z,11.77
2018-11-06T19:17:01.328Z,11.74
2018-11-06T19:19:29.821Z,11.72
2018-11-06T19:21:58.414Z,11.71
2018-11-06T19:24:26.887Z,11.65
2018-11-06T19:26:55.492Z,11.61
2018-11-06T19:29:24.393Z,11.57
2018-11-06T19:31:52.923Z,11.58
2018-11-06T19:34:21.383Z,11.57
2018-11-06T19:36:49.882Z,11.60
2018-11-06T19:39:18.360Z,11.60
2018-11-06T19:41:46.873Z,11.52
2018-11-06T19:44:15.360Z,11.43
2018-11-06T19:46:43.911Z,11.46
2018-11-06T19:49:12.388Z,11.40
2018-11-06T19:51:40.889Z,11.35
2018-11-06T19:54:12.870Z,11.46
2018-11-06T19:56:41.404Z,11.42
2018-11-06T19:59:09.881Z,11.46
2018-11-06T20:01:38.389Z,11.38
2018-11-06T20:04:06.998Z,11.37
2018-11-06T20:06:35.499Z,11.35
2018-11-06T20:09:05.650Z,11.31
2018-11-06T20:11:34.218Z,11.31
2018-11-06T20:14:02.682Z,11.40
2018-11-06T20:16:31.198Z,11.41
2018-11-06T20:18:59.685Z,11.36
2018-11-06T20:21:28.170Z,11.32
2018-11-06T20:23:56.650Z,11.34
2018-11-06T20:26:25.112Z,11.31
2018-11-06T20:28:53.606Z,11.22
2018-11-06T20:31:22.092Z,11.21
2018-11-06T20:33:50.693Z,11.02
2018-11-06T20:36:19.118Z,11.10
2018-11-06T20:38:47.639Z,10.87
2018-11-06T20:41:16.109Z,10.80
2018-11-06T20:43:44.580Z,10.73
2018-11-06T20:46:13.089Z,10.71
2018-11-06T20:48:41.638Z,10.74
2018-11-06T20:51:10.088Z,10.67
2018-11-06T20:53:38.680Z,10.75
2018-11-06T20:56:07.409Z,10.68
2018-11-06T20:58:35.962Z,10.71
2018-11-06T21:01:04.488Z,10.69
2018-11-06T21:03:32.977Z,10.79
2018-11-06T21:06:01.453Z,10.80
2018-11-06T21:08:29.973Z,10.75
2018-11-06T21:10:58.543Z,10.76
2018-11-06T21:13:27.039Z,10.73
2018-11-06T21:15:55.473Z,10.74
2018-11-06T21:18:24.027Z,10.74
2018-11-06T21:20:52.546Z,10.77
2018-11-06T21:23:21.154Z,10.71
2018-11-06T21:25:49.861Z,10.72
2018-11-06T21:28:18.347Z,10.72
2018-11-06T21:30:46.844Z,10.72
2018-11-06T21:33:15.393Z,10.78
2018-11-06T21:35:43.895Z,10.78
2018-11-06T21:38:12.369Z,10.80
2018-11-06T21:40:41.082Z,10.76
2018-11-06T21:43:09.595Z,10.78
2018-11-06T21:45:38.084Z,10.76
2018-11-06T21:48:06.740Z,10.75
2018-11-06T21:50:35.217Z,10.68
2018-11-06T21:53:03.787Z,10.65
2018-11-06T21:55:38.584Z,10.72
2018-11-06T21:58:07.147Z,10.73
2018-11-06T22:00:35.701Z,10.67
2018-11-06T22:03:04.255Z,10.67
2018-11-06T22:05:32.747Z,10.65
2018-11-06T22:08:01.293Z,10.60
2018-11-06T22:10:30.874Z,10.61
2018-11-06T22:12:59.585Z,10.54
2018-11-06T22:15:37.026Z,10.50
2018-11-06T22:18:06.220Z,10.41
2018-11-06T22:20:34.780Z,9.97
2018-11-06T22:23:03.312Z,9.61
2018-11-06T22:25:31.876Z,9.40
2018-11-06T22:28:01.438Z,9.06
2018-11-06T22:30:30.170Z,9.06
2018-11-06T22:32:58.691Z,9.17
2018-11-06T22:35:27.223Z,9.26
2018-11-06T22:37:55.736Z,9.33
2018-11-06T22:40:25.458Z,9.36
2018-11-06T22:42:53.947Z,9.40
2018-11-06T22:45:22.494Z,9.47
2018-11-06T22:47:50.982Z,9.55
2018-11-06T22:50:19.552Z,9.62
2018-11-06T22:52:51.119Z,9.51
2018-11-06T22:55:19.664Z,9.57
2018-11-06T22:57:48.185Z,9.65
2018-11-06T23:00:23.692Z,9.56
2018-11-06T23:02:53.705Z,9.65
2018-11-06T23:05:22.214Z,9.62
2018-11-06T23:07:55.958Z,9.58
2018-11-06T23:10:24.601Z,9.53
2018-11-06T23:12:53.101Z,9.65
2018-11-06T23:15:21.635Z,9.63
2018-11-06T23:17:50.126Z,9.26
2018-11-06T23:20:18.651Z,9.09
2018-11-06T23:22:47.167Z,9.10
2018-11-06T23:25:15.686Z,8.91
2018-11-06T23:27:44.194Z,8.98
2018-11-06T23:30:14.262Z,8.97
2018-11-06T23:32:42.838Z,9.04
2018-11-06T23:35:11.434Z,8.98
2018-11-06T23:37:40.713Z,8.74
2018-11-06T23:40:10.162Z,8.76
2018-11-06T23:42:38.674Z,8.84
2018-11-06T23:45:07.831Z,8.49
2018-11-06T23:47:36.374Z,8.57
2018-11-06T23:50:05.004Z,8.63
2018-11-06T23:52:33.515Z,8.74
2018-11-06T23:55:02.065Z,8.49
2018-11-06T23:57:31.080Z,8.51
